Nederlandse vliegveldverwachtingen (TAF)

Luchtvaartmeteorologische informatie voor operationeel gebruik en vluchtvoorbereiding is beschikbaar op www.luchtvaartmeteo.nl.

ZCZC
FC232100 EHGR     GILZE-RIJEN/GILZE-RIJEN   NLD   14 m.
TAF EHGR 232100Z NIL=

ZCZC
FC232100 EHKD     DE KOOY/DE KOOY   NLD   1 m.
TAF EHKD 232100Z NIL=

ZCZC
FC232100 EHLW     LEEUWARDEN/LEEUWARDEN   NLD   1 m.
TAF EHLW 232001Z 2321/2409 06006KT CAVOK
    BECMG 2407/2409 14007KT=

ZCZC
FC232100 EHVK     VOLKEL/VOLKEL   NLD   21 m.
TAF EHVK 232001Z 2321/2409 07005KT CAVOK
    BECMG 2407/2409 15005KT=

ZCZC
FC232100 EHWO     WOENSDRECHT/WOENSDRECHT   NLD   19 m.
TAF EHWO 232100Z NIL=

ZCZC
FT232300 EHAM     AMSTERDAM/SCHIPHOL   NLD   -3 m.
TAF EHAM 232253Z 2400/2506 07007KT CAVOK
    BECMG 2401/2404 12007KT
    BECMG 2412/2414 27010KT
    BECMG 2414/2416 31010KT
    BECMG 2418/2421 VRB03KT
    BECMG 2501/2504 09005KT=

ZCZC
FT232300 EHBK     MAASTRICHT/MAASTRICHT-AACHEN   NLD   114 m.
TAF EHBK 232259Z 2400/2506 15007KT CAVOK=

ZCZC
FT232300 EHGG     GRONINGEN/EELDE   NLD   5 m.
TAF EHGG 232258Z 2400/2506 10005KT CAVOK
    BECMG 2408/2411 16010KT
    BECMG 2417/2419 31010KT
    BECMG 2421/2423 VRB03KT=

ZCZC
FT232300 EHRD     ROTTERDAM/THE HAGUE AIRPORT   NLD   -5 m.
TAF EHRD 232253Z 2400/2506 07003KT CAVOK
    BECMG 2401/2404 12005KT
    BECMG 2412/2414 27010KT
    BECMG 2414/2416 31010KT
    BECMG 2418/2421 VRB03KT
    BECMG 2501/2504 09005KT=

ZCZC
FT232300 EHEH     EINDHOVEN/EINDHOVEN   NLD   22 m.
TAF EHEH 232319Z 2400/2506 08005KT CAVOK
    BECMG 2402/2404 13005KT
    BECMG 2417/2420 33008KT
    BECMG 2422/2500 VRB02KT=

24/07/2019 02.15 uur LT